Time;durP1;ratioP1;P1;durP2;ratioP2;P2;SDS_P1;SDS_P2;PMS_P1;PMS_P2;Temp;Humidity;BMP_temperature;BMP_pressure;BME280_temperature;BME280_humidity;BME280_pressure;Samples;Min_cycle;Max_cycle;Signal;HPM_P1;HPM_P2
2023/10/06 00:03:05;;;;;;;11.93;5.03;;;;;;;14.56;100.00;102433.22;5261608;28;20040;-69
2023/10/06 00:05:38;;;;;;;12.50;4.00;;;;;;;14.55;100.00;102431.53;5276012;28;20776;-69
2023/10/06 00:08:17;;;;;;;9.87;4.83;;;;;;;14.39;100.00;102427.91;5290550;28;20170;-69
2023/10/06 00:10:54;;;;;;;7.10;3.93;;;;;;;14.43;100.00;102433.88;5276366;28;20055;-69
2023/10/06 00:13:31;;;;;;;8.43;4.70;;;;;;;14.34;100.00;102429.94;5262859;28;20016;-69
2023/10/06 00:16:05;;;;;;;8.00;3.93;;;;;;;14.49;100.00;102433.56;5274601;28;20430;-69
2023/10/06 00:18:37;;;;;;;10.80;4.45;;;;;;;14.51;100.00;102428.19;5263132;28;20111;-69
2023/10/06 00:21:15;;;;;;;13.73;3.93;;;;;;;14.54;100.00;102429.84;5276205;28;20056;-69
2023/10/06 00:23:47;;;;;;;9.07;4.10;;;;;;;14.51;100.00;102428.19;5268151;28;20100;-69
2023/10/06 00:26:18;;;;;;;9.43;3.90;;;;;;;14.44;100.00;102435.56;5265467;28;20115;-69
2023/10/06 00:28:49;;;;;;;9.47;4.10;;;;;;;14.26;100.00;102432.94;5272945;28;20056;-69
2023/10/06 00:31:21;;;;;;;12.63;4.37;;;;;;;14.31;100.00;102426.59;5276550;28;20052;-69
2023/10/06 00:33:52;;;;;;;8.30;3.60;;;;;;;14.35;100.00;102421.06;5275460;28;20020;-69
2023/10/06 00:36:29;;;;;;;7.70;3.90;;;;;;;14.39;100.00;102427.03;5267996;28;20025;-69
2023/10/06 00:39:05;;;;;;;12.93;4.20;;;;;;;14.32;100.00;102425.66;5273079;28;20028;-69
2023/10/06 00:41:43;;;;;;;14.37;4.83;;;;;;;14.39;100.00;102422.63;5275955;28;20040;-69
2023/10/06 00:44:21;;;;;;;7.27;3.60;;;;;;;14.38;100.00;102426.19;5269634;28;20025;-69
2023/10/06 00:46:56;;;;;;;8.83;4.00;;;;;;;14.37;100.00;102423.63;5268569;28;20070;-69
2023/10/06 00:49:28;;;;;;;11.27;4.00;;;;;;;14.33;100.00;102411.56;5275148;28;20016;-69
2023/10/06 00:52:00;;;;;;;9.77;4.07;;;;;;;14.37;100.00;102415.72;5262563;28;20079;-69
2023/10/06 00:54:33;;;;;;;11.33;4.13;;;;;;;14.31;100.00;102419.53;5275016;28;20705;-69
2023/10/06 00:57:10;;;;;;;9.30;3.47;;;;;;;14.34;100.00;102419.38;5276278;28;20025;-69
2023/10/06 00:59:41;;;;;;;9.80;3.30;;;;;;;14.23;100.00;102414.66;5275604;28;20533;-69
2023/10/06 01:02:14;;;;;;;10.53;4.00;;;;;;;14.29;100.00;102413.50;5261462;28;20020;-69
2023/10/06 01:04:52;;;;;;;9.83;4.30;;;;;;;14.14;100.00;102408.06;5274205;28;20434;-69
2023/10/06 01:07:24;;;;;;;5.63;3.83;;;;;;;14.05;100.00;102405.03;5274744;28;20441;-70
2023/10/06 01:09:57;;;;;;;11.97;4.30;;;;;;;14.21;100.00;102410.38;5262097;28;20029;-69
2023/10/06 01:12:31;;;;;;;8.30;3.67;;;;;;;14.17;100.00;102406.19;5275191;28;20034;-69
2023/10/06 01:15:16;;;;;;;8.55;3.95;;;;;;;14.03;100.00;102381.41;5275469;28;20112;-70
2023/10/06 01:17:47;;;;;;;;;;;;;;;14.57;100.00;102384.84;5274930;28;20039;-70
2023/10/06 01:20:41;;;;;;;8.83;4.20;;;;;;;14.09;100.00;102389.00;5275651;28;19912;-70
2023/10/06 01:23:21;;;;;;;8.53;3.40;;;;;;;14.10;100.00;102384.59;5274577;28;20055;-70
2023/10/06 01:25:59;;;;;;;9.23;3.93;;;;;;;14.14;100.00;102394.88;5266715;28;20032;-70
2023/10/06 01:28:34;;;;;;;6.60;4.03;;;;;;;14.13;100.00;102384.41;5273546;28;20028;-70
2023/10/06 01:31:06;;;;;;;14.43;5.07;;;;;;;13.96;100.00;102387.91;5268832;28;20032;-70
2023/10/06 01:33:37;;;;;;;12.47;4.20;;;;;;;14.00;100.00;102381.53;5274425;28;20036;-70
2023/10/06 01:36:13;;;;;;;7.37;4.20;;;;;;;14.10;100.00;102397.75;5274576;28;20075;-70
2023/10/06 01:38:45;;;;;;;9.43;3.97;;;;;;;14.05;100.00;102392.69;5288155;28;20035;-70
2023/10/06 01:41:16;;;;;;;8.90;4.03;;;;;;;13.94;100.00;102390.63;5274644;28;20016;-70
2023/10/06 01:43:49;;;;;;;8.73;4.30;;;;;;;13.80;100.00;102383.41;5275097;28;20033;-70
2023/10/06 01:46:21;;;;;;;11.30;4.40;;;;;;;13.79;100.00;102381.66;5266223;28;20525;-70
2023/10/06 01:48:52;;;;;;;10.40;4.77;;;;;;;13.94;100.00;102372.19;5268702;28;20020;-70
2023/10/06 01:51:23;;;;;;;10.60;4.73;;;;;;;13.65;100.00;102380.56;5275037;28;20017;-69
2023/10/06 01:53:55;;;;;;;10.20;4.10;;;;;;;13.87;100.00;102378.69;5274782;28;20034;-69
2023/10/06 01:56:26;;;;;;;10.87;4.03;;;;;;;13.94;100.00;102372.19;5274585;28;20051;-69
2023/10/06 01:58:58;;;;;;;9.83;4.90;;;;;;;13.87;100.00;102376.91;5260929;28;20021;-68
2023/10/06 02:01:29;;;;;;;10.67;4.13;;;;;;;13.82;100.00;102370.16;5260905;28;20028;-69
2023/10/06 02:04:00;;;;;;;13.77;4.77;;;;;;;13.78;100.00;102354.50;5269393;28;20044;-69
2023/10/06 02:06:32;;;;;;;12.57;5.10;;;;;;;13.85;100.00;102364.72;5273655;28;20068;-69
2023/10/06 02:09:18;;;;;;;9.33;3.73;;;;;;;13.83;100.00;102361.31;5272414;28;20074;-70
2023/10/06 02:11:49;;;;;;;9.03;4.57;;;;;;;13.63;100.00;102371.06;5269387;28;20056;-69
2023/10/06 02:14:20;;;;;;;8.10;4.10;;;;;;;13.47;100.00;102311.22;5269971;28;20044;-70
2023/10/06 02:16:55;;;;;;;9.00;4.57;;;;;;;13.75;100.00;102367.81;5264982;28;20033;-68
2023/10/06 02:19:28;;;;;;;9.47;4.70;;;;;;;13.78;100.00;102378.22;5252327;28;20043;-69
2023/10/06 02:22:00;;;;;;;12.90;4.93;;;;;;;13.72;100.00;102375.84;5273682;28;20662;-69
2023/10/06 02:24:32;;;;;;;11.30;4.50;;;;;;;13.72;100.00;102370.59;5285619;28;20140;-69
2023/10/06 02:27:03;;;;;;;7.27;4.37;;;;;;;13.81;100.00;102369.28;5271241;28;20081;-69
2023/10/06 02:29:34;;;;;;;9.57;4.50;;;;;;;13.75;100.00;102369.59;5272091;28;20033;-69
2023/10/06 02:32:06;;;;;;;8.57;4.17;;;;;;;13.82;100.00;102370.16;5272552;28;20021;-69
2023/10/06 02:34:38;;;;;;;11.00;4.93;;;;;;;13.61;100.00;102373.78;5260498;28;20117;-69
2023/10/06 02:37:10;;;;;;;10.80;5.23;;;;;;;13.68;100.00;102369.06;5273529;28;20046;-68
2023/10/06 02:39:43;;;;;;;11.33;4.70;;;;;;;13.68;100.00;102374.31;5273663;28;20032;-69
2023/10/06 02:42:14;;;;;;;8.57;4.47;;;;;;;13.71;100.00;102375.94;5272455;28;20395;-69
2023/10/06 02:44:46;;;;;;;10.20;4.70;;;;;;;13.70;100.00;102364.53;5273593;28;20029;-69
2023/10/06 02:47:19;;;;;;;9.73;4.93;;;;;;;13.69;100.00;102354.94;5269774;28;20024;-69
2023/10/06 02:49:59;;;;;;;8.93;4.20;;;;;;;13.58;100.00;102355.47;5268652;28;20028;-69
2023/10/06 02:52:37;;;;;;;10.10;4.33;;;;;;;13.60;100.00;102360.66;5271741;28;20033;-69
2023/10/06 02:55:10;;;;;;;11.27;4.37;;;;;;;13.60;100.00;102365.91;5274519;28;20108;-70
2023/10/06 02:57:50;;;;;;;11.90;4.90;;;;;;;13.57;100.00;102366.06;5272881;28;20028;-70
2023/10/06 03:03:03;;;;;;;10.23;4.13;;;;;;;13.57;100.00;102360.81;5272309;28;20037;-70
2023/10/06 03:05:39;;;;;;;8.97;4.90;;;;;;;13.53;100.00;102358.34;5272398;28;20063;-70
2023/10/06 03:08:11;;;;;;;6.83;3.70;;;;;;;13.36;100.00;102329.31;5272864;28;20082;-70
2023/10/06 03:10:43;;;;;;;7.60;3.93;;;;;;;13.52;100.00;102353.16;5272893;28;20064;-69
2023/10/06 03:13:42;;;;;;;7.27;4.40;;;;;;;13.62;100.00;102346.50;5272760;28;20032;-69
2023/10/06 03:16:19;;;;;;;10.37;4.10;;;;;;;13.46;100.00;102338.47;5267253;28;20132;-69
2023/10/06 03:18:52;;;;;;;10.73;4.30;;;;;;;13.45;100.00;102339.41;5268179;28;20029;-69
2023/10/06 03:21:23;;;;;;;12.47;4.57;;;;;;;13.39;100.00;102337.03;5273335;28;20032;-69
2023/10/06 03:24:05;;;;;;;9.67;4.40;;;;;;;13.37;100.00;102338.91;5273751;28;20036;-68
2023/10/06 03:26:43;;;;;;;7.60;4.20;;;;;;;13.29;100.00;102337.50;5273586;28;20444;-69
2023/10/06 03:29:28;;;;;;;10.57;4.00;;;;;;;13.36;100.00;102342.47;5270155;28;20055;-68
2023/10/06 03:31:59;;;;;;;9.65;4.45;;;;;;;13.39;100.00;102352.84;5273836;28;20025;-69
2023/10/06 03:34:31;;;;;;;10.10;4.57;;;;;;;13.41;100.00;102349.22;5272023;28;20029;-69
2023/10/06 03:37:04;;;;;;;12.57;4.67;;;;;;;13.34;100.00;102339.91;5276871;28;20029;-70
2023/10/06 03:39:47;;;;;;;11.57;4.80;;;;;;;13.37;100.00;102349.44;5277584;28;20028;-69
2023/10/06 03:42:20;;;;;;;8.93;4.80;;;;;;;13.34;100.00;102349.56;5276987;28;20483;-69
2023/10/06 03:45:05;;;;;;;11.67;3.80;;;;;;;13.09;100.00;102348.94;5277003;28;20109;-69
2023/10/06 03:47:36;;;;;;;8.95;4.32;;;;;;;13.28;100.00;102345.47;5277163;28;20620;-69
2023/10/06 03:50:08;;;;;;;11.83;4.93;;;;;;;13.14;100.00;102340.88;5277390;28;20119;-69
2023/10/06 03:52:39;;;;;;;11.27;3.93;;;;;;;13.28;100.00;102342.84;5263656;28;20040;-70
2023/10/06 03:55:13;;;;;;;9.97;4.03;;;;;;;13.24;100.00;102333.38;5277693;28;20032;-69
2023/10/06 03:57:45;;;;;;;10.63;4.53;;;;;;;13.25;100.00;102332.44;5278340;28;20028;-69
2023/10/06 04:00:19;;;;;;;6.47;3.90;;;;;;;13.16;100.00;102331.13;5275365;28;20020;-69
2023/10/06 04:02:50;;;;;;;8.98;4.78;;;;;;;13.26;100.00;102326.28;5272802;28;20078;-69
2023/10/06 04:05:22;;;;;;;8.97;4.80;;;;;;;13.19;100.00;102318.66;5274363;28;20738;-68
2023/10/06 04:07:56;;;;;;;8.10;3.80;;;;;;;13.22;100.00;102319.44;5275096;28;20020;-69
2023/10/06 04:10:27;;;;;;;10.60;4.45;;;;;;;13.25;100.00;102317.50;5272615;28;20029;-69
2023/10/06 04:12:59;;;;;;;7.37;3.73;;;;;;;13.25;100.00;102312.25;5274229;28;20516;-69
2023/10/06 04:15:31;;;;;;;11.00;4.30;;;;;;;13.12;100.00;102290.97;5272485;28;20068;-70
2023/10/06 04:18:02;;;;;;;12.93;4.10;;;;;;;13.24;100.00;102307.94;5272185;28;20539;-70
2023/10/06 04:20:34;;;;;;;6.30;3.57;;;;;;;13.24;100.00;102313.19;5262255;28;20032;-69
2023/10/06 04:23:06;;;;;;;8.00;4.00;;;;;;;13.09;100.00;102306.84;5276630;28;20067;-70
2023/10/06 04:25:39;;;;;;;10.30;3.83;;;;;;;13.19;100.00;102317.81;5275426;28;20111;-69
2023/10/06 04:28:14;;;;;;;8.27;4.37;;;;;;;13.21;100.00;102336.16;5274687;28;20056;-69
2023/10/06 04:30:46;;;;;;;8.07;3.60;;;;;;;13.19;100.00;102341.50;5275943;28;20020;-69
2023/10/06 04:33:21;;;;;;;8.13;4.03;;;;;;;13.16;100.00;102325.88;5275566;28;20036;-67
2023/10/06 04:35:55;;;;;;;6.33;3.93;;;;;;;13.20;100.00;102337.94;5274889;28;20020;-70
2023/10/06 04:38:27;;;;;;;9.65;3.67;;;;;;;13.17;100.00;102330.19;5275395;28;20021;-69
2023/10/06 04:40:58;;;;;;;12.37;4.30;;;;;;;13.18;100.00;102326.63;5273444;28;20742;-68
2023/10/06 04:43:29;;;;;;;9.97;4.07;;;;;;;13.14;100.00;102317.19;5275778;28;20029;-68
2023/10/06 04:46:05;;;;;;;9.83;4.23;;;;;;;13.12;100.00;102316.41;5275919;28;20474;-69
2023/10/06 04:48:36;;;;;;;10.77;4.20;;;;;;;13.13;100.00;102311.06;5262659;28;20021;-68
2023/10/06 04:51:13;;;;;;;12.33;3.73;;;;;;;13.12;100.00;102314.63;5274809;28;20024;-69
2023/10/06 04:53:46;;;;;;;10.23;3.93;;;;;;;13.07;100.00;102311.38;5276093;28;20016;-69
2023/10/06 04:56:17;;;;;;;11.00;3.90;;;;;;;13.07;100.00;102317.47;5272234;28;20020;-69
2023/10/06 04:58:49;;;;;;;11.57;4.23;;;;;;;13.03;100.00;102308.03;5275854;28;20439;-69
2023/10/06 05:01:20;;;;;;;10.97;4.10;;;;;;;13.05;100.00;102303.56;5270584;28;20032;-69
2023/10/06 05:03:53;;;;;;;9.23;4.07;;;;;;;12.95;100.00;102297.03;5274869;28;20064;-69
2023/10/06 05:06:25;;;;;;;9.60;3.80;;;;;;;12.95;100.00;102297.84;5275526;28;20608;-68
2023/10/06 05:08:57;;;;;;;7.50;4.50;;;;;;;12.97;100.00;102305.66;5275265;28;20016;-68
2023/10/06 05:11:32;;;;;;;9.20;3.47;;;;;;;13.01;100.00;102304.59;5273394;28;20056;-68
2023/10/06 05:14:04;;;;;;;7.77;3.33;;;;;;;12.99;100.00;102306.44;5269706;28;20016;-69
2023/10/06 05:16:36;;;;;;;8.70;4.43;;;;;;;13.03;100.00;102305.41;5274515;28;20024;-69
2023/10/06 05:19:07;;;;;;;7.73;3.30;;;;;;;12.90;100.00;102301.59;5265456;28;20032;-69
2023/10/06 05:21:39;;;;;;;12.63;4.43;;;;;;;12.96;100.00;102296.09;5258274;28;20029;-70
2023/10/06 05:24:10;;;;;;;7.50;3.50;;;;;;;12.86;100.00;102282.53;5271543;28;20016;-70
2023/10/06 05:26:43;;;;;;;11.30;4.10;;;;;;;13.01;100.00;102307.25;5274544;28;20166;-69
2023/10/06 05:29:15;;;;;;;12.93;3.80;;;;;;;12.92;100.00;102295.38;5274331;28;20027;-69
2023/10/06 05:31:46;;;;;;;9.80;3.43;;;;;;;12.94;100.00;102290.03;5271431;28;20020;-69
2023/10/06 05:34:17;;;;;;;7.80;3.63;;;;;;;13.05;100.00;102302.69;5269742;28;20566;-69
2023/10/06 05:36:50;;;;;;;6.87;4.00;;;;;;;13.02;100.00;102311.56;5275337;28;20082;-69
2023/10/06 05:39:21;;;;;;;10.33;4.13;;;;;;;13.04;100.00;102301.81;5272198;28;20476;-69
2023/10/06 05:41:53;;;;;;;10.07;4.27;;;;;;;13.00;100.00;102297.66;5268767;28;20097;-69
2023/10/06 05:44:24;;;;;;;9.50;3.50;;;;;;;12.96;100.00;102296.09;5270815;28;20012;-68
2023/10/06 05:46:55;;;;;;;9.70;3.80;;;;;;;13.05;100.00;102308.81;5270052;28;20050;-68
2023/10/06 05:49:29;;;;;;;10.23;3.97;;;;;;;13.02;100.00;102298.41;5273932;28;20028;-70
2023/10/06 05:52:03;;;;;;;11.48;4.50;;;;;;;12.97;100.00;102308.28;5273523;28;20028;-69
2023/10/06 05:54:36;;;;;;;11.35;4.65;;;;;;;12.92;100.00;102297.13;5268994;28;20085;-68
2023/10/06 05:57:07;;;;;;;9.53;3.93;;;;;;;12.92;100.00;102316.41;5277281;28;20044;-70
2023/10/06 05:59:38;;;;;;;13.27;4.33;;;;;;;12.91;100.00;102311.22;5274811;28;20564;-69
2023/10/06 06:02:11;;;;;;;9.23;3.90;;;;;;;12.88;100.00;102306.13;5266680;28;20025;-69
2023/10/06 06:04:43;;;;;;;8.73;3.83;;;;;;;12.88;100.00;102308.75;5272992;28;20048;-69
2023/10/06 06:07:14;;;;;;;9.47;3.90;;;;;;;12.88;100.00;102301.69;5274558;28;20021;-69
2023/10/06 06:09:45;;;;;;;10.83;4.50;;;;;;;12.88;100.00;102299.06;5265022;28;20056;-70
2023/10/06 06:12:21;;;;;;;10.40;4.07;;;;;;;12.90;100.00;102304.25;5265065;28;20027;-69
2023/10/06 06:14:54;;;;;;;10.33;4.23;;;;;;;12.89;100.00;102311.28;5259942;28;20036;-68
2023/10/06 06:17:25;;;;;;;12.03;4.73;;;;;;;12.87;100.00;102305.25;5265610;28;20035;-69
2023/10/06 06:19:57;;;;;;;9.80;4.17;;;;;;;12.83;100.00;102311.56;5265026;28;20695;-67
2023/10/06 06:22:32;;;;;;;11.37;4.30;;;;;;;12.95;100.00;102312.78;5258401;28;20478;-68
2023/10/06 06:25:05;;;;;;;7.73;4.27;;;;;;;12.97;100.00;102310.91;5268310;28;20716;-67
2023/10/06 06:27:36;;;;;;;12.27;4.43;;;;;;;12.96;100.00;102311.84;5254817;28;20029;-67
2023/10/06 06:30:08;;;;;;;13.43;4.57;;;;;;;13.08;100.00;102310.44;5264123;28;20501;-70
2023/10/06 06:32:39;;;;;;;12.43;4.17;;;;;;;13.14;100.00;102322.44;5268507;28;20036;-69
2023/10/06 06:35:13;;;;;;;11.47;4.60;;;;;;;13.14;100.00;102314.56;5258423;28;20037;-70
2023/10/06 06:37:56;;;;;;;9.10;3.78;;;;;;;13.27;100.00;102326.19;5259610;28;20028;-68
2023/10/06 06:40:31;;;;;;;12.70;5.23;;;;;;;13.23;100.00;102315.91;5269670;28;20032;-68
2023/10/06 06:43:03;;;;;;;13.33;4.93;;;;;;;13.30;100.00;102323.41;5273577;28;20035;-68
2023/10/06 06:45:39;;;;;;;10.07;4.53;;;;;;;13.30;100.00;102323.41;5274670;28;20032;-68
2023/10/06 06:48:16;;;;;;;13.70;4.67;;;;;;;13.27;100.00;102310.41;5243522;28;20035;-69
2023/10/06 06:50:48;;;;;;;14.20;4.73;;;;;;;13.37;100.00;102312.59;5257208;28;20036;-69
2023/10/06 06:53:19;;;;;;;6.87;3.83;;;;;;;13.33;100.00;102321.56;5261532;28;20032;-69
2023/10/06 06:55:51;;;;;;;11.80;4.73;;;;;;;13.43;100.00;102325.47;5261247;28;20028;-68
2023/10/06 06:58:22;;;;;;;10.53;3.60;;;;;;;13.44;100.00;102321.88;5262805;28;20119;-67
2023/10/06 07:00:54;;;;;;;14.97;4.77;;;;;;;13.47;100.00;102324.41;5263891;28;20043;-68
2023/10/06 07:03:26;;;;;;;7.83;3.93;;;;;;;13.47;100.00;102307.75;5252349;28;20135;-68
2023/10/06 07:05:57;;;;;;;11.53;4.00;;;;;;;13.54;100.00;102310.00;5267571;28;20089;-68
2023/10/06 07:08:28;;;;;;;8.83;3.60;;;;;;;13.56;100.00;102312.59;5263609;28;20025;-69
2023/10/06 07:11:06;;;;;;;9.47;3.87;;;;;;;13.72;100.00;102317.94;5266371;28;20055;-70
2023/10/06 07:13:38;;;;;;;10.03;4.50;;;;;;;13.63;100.00;102311.34;5264746;28;20020;-67
2023/10/06 07:16:09;;;;;;;11.93;3.97;;;;;;;13.65;100.00;102312.13;5266595;28;20033;-68
2023/10/06 07:18:41;;;;;;;6.87;3.80;;;;;;;13.63;100.00;102302.63;5258106;28;20523;-68
2023/10/06 07:21:13;;;;;;;10.60;3.77;;;;;;;13.67;100.00;102314.69;5265682;28;20075;-68
2023/10/06 07:23:44;;;;;;;12.93;4.63;;;;;;;13.71;100.00;102316.25;5264951;28;20682;-67
2023/10/06 07:26:15;;;;;;;10.13;3.70;;;;;;;13.74;100.00;102308.19;5266081;28;20182;-69
2023/10/06 07:28:51;;;;;;;12.40;4.70;;;;;;;13.78;100.00;102316.78;5261259;28;20032;-68
2023/10/06 07:31:24;;;;;;;9.23;3.93;;;;;;;13.87;100.00;102305.81;5264390;28;20040;-68
2023/10/06 07:33:57;;;;;;;6.97;3.80;;;;;;;13.97;100.00;102321.97;5264790;28;20039;-68
2023/10/06 07:36:29;;;;;;;11.27;4.57;;;;;;;13.97;100.00;102311.44;5263855;28;20028;-69
2023/10/06 07:39:01;;;;;;;10.60;3.87;;;;;;;14.05;100.00;102297.88;5263782;28;20032;-69
2023/10/06 07:41:32;;;;;;;11.77;3.97;;;;;;;14.18;100.00;102324.44;5261386;28;20039;-69
2023/10/06 07:44:05;;;;;;;8.70;3.83;;;;;;;14.26;100.00;102319.63;5258995;28;20024;-69
2023/10/06 07:46:36;;;;;;;12.23;3.80;;;;;;;14.29;100.00;102329.16;5260584;28;20059;-68
2023/10/06 07:49:07;;;;;;;9.70;3.90;;;;;;;14.33;100.00;102332.50;5265539;28;20127;-69
2023/10/06 07:51:39;;;;;;;9.73;4.43;;;;;;;14.43;100.00;102333.72;5262574;28;20028;-69
2023/10/06 07:54:10;;;;;;;8.30;3.73;;;;;;;14.56;100.00;102336.53;5263356;28;20090;-69
2023/10/06 07:56:42;;;;;;;8.80;3.90;;;;;;;14.66;100.00;102349.25;5263896;28;20021;-69
2023/10/06 07:59:13;;;;;;;11.50;4.57;;;;;;;14.77;100.00;102352.16;5263869;28;20040;-67
2023/10/06 08:01:44;;;;;;;9.67;4.27;;;;;;;14.93;100.00;102357.47;5260710;28;20131;-68
2023/10/06 08:04:17;;;;;;;10.70;4.50;;;;;;;15.05;100.00;102361.22;5264348;28;21451;-68
2023/10/06 08:06:48;;;;;;;8.53;3.93;;;;;;;15.30;100.00;102343.19;5261629;28;20029;-70
2023/10/06 08:09:21;;;;;;;10.43;4.00;;;;;;;15.70;100.00;102348.84;5262256;28;20513;-68
2023/10/06 08:11:55;;;;;;;13.50;3.60;;;;;;;16.03;100.00;102335.56;5262128;28;20036;-69
2023/10/06 08:14:28;;;;;;;17.35;4.13;;;;;;;16.41;100.00;102342.97;5265913;28;20331;-69
2023/10/06 08:16:59;;;;;;;10.27;4.30;;;;;;;16.79;100.00;102338.06;5263536;28;20028;-69
2023/10/06 08:19:30;;;;;;;10.27;4.07;;;;;;;17.38;100.00;102339.66;5264168;28;20021;-69
2023/10/06 08:22:02;;;;;;;10.13;3.60;;;;;;;18.60;100.00;102335.97;5265708;28;20107;-69
2023/10/06 08:24:33;;;;;;;9.13;3.70;;;;;;;19.24;100.00;102342.09;5247384;28;20090;-69
2023/10/06 08:27:07;;;;;;;9.97;3.97;;;;;;;20.17;100.00;102339.66;5257723;28;20123;-69
2023/10/06 08:29:38;;;;;;;10.18;3.95;;;;;;;20.68;100.00;102349.94;5269342;28;20063;-69
2023/10/06 08:32:09;;;;;;;8.47;3.87;;;;;;;21.40;99.32;102350.38;5269572;28;20024;-69
2023/10/06 08:34:41;;;;;;;12.98;4.20;;;;;;;21.33;92.07;102338.53;5269003;28;20039;-68
2023/10/06 08:37:14;;;;;;;6.50;3.72;;;;;;;21.02;94.41;102352.56;5268193;28;20021;-69
2023/10/06 08:39:46;;;;;;;10.70;4.72;;;;;;;20.97;90.02;102346.78;5267436;28;20025;-69
2023/10/06 08:42:19;;;;;;;11.68;4.40;;;;;;;21.10;86.93;102343.13;5270855;28;20086;-69
2023/10/06 08:44:51;;;;;;;11.23;3.50;;;;;;;21.06;86.73;102345.19;5268629;28;20036;-69
2023/10/06 08:47:24;;;;;;;11.52;5.28;;;;;;;20.98;87.67;102345.78;5267661;28;20028;-69
2023/10/06 08:49:56;;;;;;;11.07;3.47;;;;;;;21.34;80.34;102350.06;5264335;28;21188;-69
2023/10/06 08:52:29;;;;;;;7.82;3.55;;;;;;;21.45;77.18;102342.00;5275013;28;20025;-69
2023/10/06 08:55:01;;;;;;;8.52;3.67;;;;;;;22.05;76.39;102342.44;5274004;28;20052;-69
2023/10/06 08:57:33;;;;;;;11.68;3.60;;;;;;;22.33;71.87;102343.56;5282227;28;20213;-70
2023/10/06 09:00:06;;;;;;;7.22;3.45;;;;;;;22.88;65.36;102344.22;5265301;28;20024;-70
2023/10/06 09:02:37;;;;;;;10.10;3.67;;;;;;;23.15;64.49;102347.19;5272377;28;20085;-70
2023/10/06 09:05:10;;;;;;;9.65;3.60;;;;;;;22.79;66.58;102353.03;5274162;28;20538;-70
2023/10/06 09:08:00;;;;;;;8.80;3.60;;;;;;;22.57;71.45;102347.75;5274721;28;20020;-69
2023/10/06 09:10:34;;;;;;;9.27;4.00;;;;;;;22.00;68.27;102361.50;5268608;28;20028;-69
2023/10/06 09:13:16;;;;;;;10.10;4.45;;;;;;;22.89;71.81;102361.91;5269628;28;20073;-70
2023/10/06 09:16:06;;;;;;;9.63;3.97;;;;;;;23.54;68.92;102357.94;5272041;28;20097;-70
2023/10/06 09:18:40;;;;;;;11.55;4.25;;;;;;;23.93;58.45;102340.97;5267496;28;20032;-70
2023/10/06 09:21:19;;;;;;;12.07;4.90;;;;;;;23.75;58.21;102358.75;5273663;28;20032;-69
2023/10/06 09:23:50;;;;;;;10.68;4.60;;;;;;;23.14;58.93;102351.72;5274325;28;20032;-70
2023/10/06 09:26:27;;;;;;;10.57;3.40;;;;;;;23.58;59.48;102353.13;5273598;28;20020;-70
2023/10/06 09:29:02;;;;;;;10.55;3.50;;;;;;;23.89;59.49;102326.22;5266370;28;20029;-70
2023/10/06 09:31:38;;;;;;;10.70;4.00;;;;;;;24.79;55.86;102332.03;5265240;28;20028;-69
2023/10/06 09:34:11;;;;;;;11.70;3.92;;;;;;;24.71;52.16;102331.94;5267461;28;20035;-69
2023/10/06 09:36:42;;;;;;;7.63;3.53;;;;;;;24.62;51.91;102331.84;5258280;28;20029;-69
2023/10/06 09:39:35;;;;;;;9.32;4.32;;;;;;;24.88;54.52;102325.78;5273197;28;20070;-69
2023/10/06 09:42:09;;;;;;;12.55;3.97;;;;;;;24.25;54.38;102330.06;5273187;28;20039;-70
2023/10/06 09:44:44;;;;;;;10.43;3.67;;;;;;;23.72;55.85;102324.28;5272480;28;20032;-70
2023/10/06 09:47:18;;;;;;;13.68;4.15;;;;;;;23.63;56.20;102326.81;5269543;28;20035;-70
2023/10/06 09:49:51;;;;;;;7.57;3.42;;;;;;;23.59;58.27;102325.41;5262523;28;20487;-70
2023/10/06 09:52:26;;;;;;;9.35;4.32;;;;;;;23.68;58.72;102323.72;5273602;28;20029;-70
2023/10/06 09:54:57;;;;;;;10.02;4.10;;;;;;;23.77;56.43;102319.34;5264034;28;20151;-70
2023/10/06 09:57:30;;;;;;;11.55;4.32;;;;;;;23.69;56.17;102320.03;5251809;28;20116;-70
2023/10/06 10:00:01;;;;;;;9.20;3.47;;;;;;;23.47;57.33;102318.53;5239676;28;20051;-70
2023/10/06 10:02:34;;;;;;;10.15;3.17;;;;;;;23.00;61.22;102317.38;5267845;28;20414;-70
2023/10/06 10:05:10;;;;;;;15.55;5.43;;;;;;;22.92;60.93;102316.22;5263488;28;20842;-70
2023/10/06 10:07:42;;;;;;;8.65;3.17;;;;;;;22.77;63.29;102328.28;5268985;28;20036;-70
2023/10/06 10:10:15;;;;;;;8.57;3.47;;;;;;;22.46;64.09;102315.81;5272819;28;20028;-70
2023/10/06 10:13:23;;;;;;;7.82;3.50;;;;;;;22.57;65.78;102314.84;5272954;28;20028;-69
2023/10/06 10:16:25;;;;;;;11.15;3.78;;;;;;;22.41;68.41;102316.19;5257572;28;20563;-69
2023/10/06 10:19:03;;;;;;;9.45;3.60;;;;;;;22.12;69.12;102322.25;5251211;28;20025;-69
2023/10/06 10:21:36;;;;;;;10.63;3.50;;;;;;;21.92;71.27;102327.50;5267170;28;20040;-70
2023/10/06 10:24:13;;;;;;;8.57;3.25;;;;;;;21.69;77.58;102324.94;5273116;28;20031;-68
2023/10/06 10:26:47;;;;;;;11.73;3.45;;;;;;;21.92;72.65;102316.84;5260375;28;20044;-67
2023/10/06 10:29:18;;;;;;;10.05;3.60;;;;;;;21.83;70.40;102312.28;5263237;28;20043;-67
2023/10/06 10:31:52;;;;;;;9.75;3.42;;;;;;;21.94;71.17;102314.03;5257853;28;20029;-67
2023/10/06 10:34:25;;;;;;;13.43;3.85;;;;;;;21.68;72.27;102320.56;5258473;28;20048;-67
2023/10/06 10:37:05;;;;;;;10.27;3.70;;;;;;;21.75;72.75;102310.22;5255270;28;20082;-67
2023/10/06 10:39:50;;;;;;;8.40;4.13;;;;;;;21.79;72.65;102301.03;5253120;28;20024;-67
2023/10/06 10:42:36;;;;;;;10.35;4.30;;;;;;;21.58;73.52;102309.00;5255936;28;20021;-66
2023/10/06 10:45:46;;;;;;;10.75;3.65;;;;;;;21.91;72.83;102303.63;5269132;28;20070;-67
2023/10/06 10:48:18;;;;;;;13.50;4.68;;;;;;;21.57;74.12;102288.66;5198887;28;20136;-66
2023/10/06 10:51:00;;;;;;;10.77;3.80;;;;;;;21.87;74.95;102298.56;5257673;28;20103;-67
2023/10/06 10:53:34;;;;;;;6.20;3.42;;;;;;;21.89;73.87;102295.75;5263517;28;20029;-67
2023/10/06 10:56:06;;;;;;;;;;;;;;;22.41;69.27;102288.69;5261919;28;20631;-67
2023/10/06 10:58:44;;;;;;;8.30;3.75;;;;;;;21.92;70.48;102298.19;5257019;28;19990;-67
2023/10/06 11:01:35;;;;;;;14.55;4.25;;;;;;;21.77;71.52;102300.28;5257405;28;20048;-67
2023/10/06 11:04:12;;;;;;;12.45;4.40;;;;;;;21.78;71.42;102301.13;5254526;28;20114;-67
2023/10/06 11:06:50;;;;;;;9.43;3.38;;;;;;;21.78;71.50;102298.47;5254275;28;20025;-67
2023/10/06 11:09:28;;;;;;;9.50;3.35;;;;;;;21.59;71.64;102306.19;5250935;28;20063;-67
2023/10/06 11:12:05;;;;;;;11.15;4.22;;;;;;;21.57;73.27;102305.50;5260490;28;20032;-67
2023/10/06 11:14:40;;;;;;;14.23;4.15;;;;;;;21.73;74.58;102305.03;5268172;28;20020;-67
2023/10/06 11:17:12;;;;;;;11.07;4.15;;;;;;;21.59;71.57;102306.19;5267750;28;20020;-67
2023/10/06 11:19:44;;;;;;;7.75;4.20;;;;;;;21.54;71.98;102297.75;5257272;28;20032;-66
2023/10/06 11:22:19;;;;;;;9.52;3.70;;;;;;;21.44;73.64;102297.69;5267775;28;20123;-67
2023/10/06 11:24:50;;;;;;;11.98;4.20;;;;;;;21.43;76.25;102293.34;5265790;28;20028;-67
2023/10/06 11:27:22;;;;;;;12.70;4.82;;;;;;;21.34;74.67;102291.44;5261629;28;20020;-67
2023/10/06 11:29:57;;;;;;;10.45;4.28;;;;;;;21.47;74.14;102294.75;5262949;28;20906;-66
2023/10/06 11:32:28;;;;;;;12.10;3.95;;;;;;;21.44;75.58;102291.50;5268644;28;20387;-68
2023/10/06 11:35:00;;;;;;;8.00;3.53;;;;;;;21.33;77.29;102289.75;5251767;28;20027;-67
2023/10/06 11:37:31;;;;;;;11.20;4.65;;;;;;;21.51;76.43;102292.69;5271727;28;20606;-69
2023/10/06 11:40:03;;;;;;;13.50;4.70;;;;;;;21.61;77.72;102274.94;5267309;28;20294;-69
2023/10/06 11:42:36;;;;;;;10.00;3.95;;;;;;;21.65;75.16;102283.53;5272963;28;20036;-69
2023/10/06 11:45:26;;;;;;;13.35;3.97;;;;;;;21.80;73.45;102248.56;5269056;28;20105;-68
2023/10/06 11:47:58;;;;;;;9.63;4.05;;;;;;;21.72;72.39;102268.69;5256449;28;20045;-68
2023/10/06 11:50:32;;;;;;;7.90;3.90;;;;;;;21.67;74.63;102254.91;5267269;28;20024;-68
2023/10/06 11:53:03;;;;;;;10.38;3.78;;;;;;;21.82;73.35;102262.63;5274064;28;20036;-66